Kinetic-One Castle Combe TT Series 2018
Skip Navigation Links
Results
Team Results
Live Leaderboard
DB Max TT Series
Race Stats
Smartphone Results
8 Aug 2018
HyperLink
Click on your name for more detailed race data
Page 1 of 2 (93 items)
[1]2
Pos
Bib No
Fav
Share
Photo
Name
Time
Category
Cat Pos
Gender
Gen Pos
Club
Start Time
Split 1
G/Pos
Lap 1
G/Pos
Lap 2
G/Pos
Lap 3
G/Pos
Lap 4
G/Pos
Lap 5
G/Pos
1101Richard BROOK21:05.2Vet401Male1VC WALCOT 19:50:301:42.513:50.413:52.613:53.013:52.013:54.42
2104Alex DOHERTY21:16.3Sen1Male2GOODER SWIM19:52:001:43.733:51.423:55.623:55.123:57.123:53.11
3100Morgan CURLE21:50.7Jun1Male3GIANT CC HALO FILMS19:50:001:43.623:58.943:59.234:02.334:02.634:03.96
490Jack POWIS21:59.9Jun2Male4 19:45:001:47.144:02.364:00.844:03.144:05.174:01.34
598Jason STREATHER22:00.9Vet402Male5PDQ CYCLE COACHING19:49:001:48.983:58.234:00.954:05.784:03.944:03.35
696James EACOTT22:06.9Sen2Male6 19:48:001:52.6154:00.954:03.464:05.274:04.354:00.23
775Ben BRIDEWELL22:15.0Sen3Male7VC-CYCLING19:37:301:49.494:04.374:05.374:04.264:05.164:06.57
899David HOBBS22:21.7Supvet501Male8 19:49:301:48.774:08.294:06.884:03.354:05.684:09.09
961Tom MOFFAT22:41.9Sen4Male9UNIVERSITY OF BATH CYCLING CLUB 19:30:301:48.554:06.284:09.394:12.2104:15.3114:10.110
1084Tom BANDY22:49.0Sen5Male10 19:42:001:51.4134:09.1114:11.8104:13.2114:12.5104:10.811
1183Chris LENG22:49.3Vet403Male11 19:41:301:53.1164:13.2124:13.7114:09.894:12.094:07.28
1285Colin MOONEY23:08.4Vet404Male12 19:42:301:50.1114:08.3104:18.3124:18.3134:19.1134:14.112
1387Steve BRAY23:29.1Vet405Male13SALT AND SHAM CC19:43:301:53.8174:18.8174:18.5144:19.8144:20.9164:17.214
1473Nick DART23:29.5Vet406Male14 19:36:301:59.0274:16.4144:18.3134:20.0154:19.7154:15.813
1589Chrissie ROWLEY23:31.3Supvet501Female1NOPINZ 19:44:301:54.614:18.524:20.214:20.914:19.614:17.31
166Mike COX23:32.1Supvet601Male15 19:03:001:52.3144:16.7154:19.2154:23.3184:21.6184:18.816
1760Nick BUFFERY23:37.0Sen6Male16 19:30:001:49.4104:15.5134:21.5184:24.0214:21.9194:24.425
1880Martin NEILL23:41.1Vet407Male17FLYING MONK TRIATHLON CLUB19:40:002:04.8434:22.5224:20.8174:17.3124:18.2124:17.215
1922Peter BALLINGER23:44.1Vet408Male18TTG19:11:001:56.9234:23.2254:23.5204:20.2164:19.6144:20.519
2097Ian MOORE23:48.7Supvet502Male19PHIL KIBBLE COACHING19:48:301:51.1124:17.3164:26.6254:26.7224:24.7224:22.122
2186Caitlin PETERS23:48.8Jun1Female2 19:43:001:54.724:16.614:24.534:25.924:25.824:21.02
2294Simon WALDRON 23:50.5Vet409Male20VC CYCLING19:47:001:57.4244:21.3204:21.9194:23.8204:23.8214:21.921
2377John REED23:57.2Supvet503Male21WESTBURY HARRIERS19:38:301:57.9254:21.6214:25.8244:22.4174:26.0234:23.323
2479Michelle LEE24:02.6Vet401Female3 19:39:301:55.434:23.034:22.524:28.134:26.634:26.83
2555Ray PERKINS24:04.0Supvet504Male22 19:27:302:02.7354:28.7314:25.1224:23.8194:23.3204:20.318
2656Charles EATON24:06.4Sen7Male23 19:28:001:55.3204:29.5324:30.8274:28.0234:20.9174:21.520
2751Gary FORD24:10.9Vet4010Male24TEAM BOTTRILL19:25:302:03.3384:19.6184:19.3164:28.0254:29.9254:30.433
2881Tim PURVEY24:15.8Vet4011Male25 19:40:301:54.1184:24.6274:32.6314:28.9264:31.5294:23.924
2964Jamie CURRIE24:20.3Vet4012Male26CHIPPENHAM AND DISTRICT WHEELERS19:32:001:59.6284:23.0234:23.6214:30.1284:31.5304:32.234
3074Neil PUGH24:22.1Supvet505Male27CHELTENHAM AND COUNTY CC19:37:002:06.0474:20.6194:25.3234:31.0294:30.6264:28.429
3192Nicki CARR24:25.4Sen1Female4 19:46:001:56.844:25.644:31.844:30.344:29.944:30.84
3252Mike ANDERSON24:26.1Supvet602Male28VC VENTA19:26:002:04.0424:26.1284:27.2264:29.4274:31.3284:28.027
3378Liam HANLEY24:26.6Vet4013Male29KINGSWOOD TRIATHLON CLUB19:39:001:59.9294:35.8344:35.5364:28.0244:27.7244:19.417
3495Emilio MAZZOTTA24:33.8Supvet506Male30 19:47:301:48.564:24.5264:32.4304:37.3354:36.6354:34.336
3591David LANCASTER24:35.4Supvet507Male31VC1019:45:302:00.3304:23.2244:31.1284:34.3324:37.9374:28.430
3669Derek THOMSON24:41.5Supvet508Male32FLYING MONKS19:34:301:55.7214:32.0334:35.2354:37.4364:32.7324:28.328
3749Stephen CHAPMAN24:50.7Supvet509Male33CORINIUM CYCLING CLUB19:24:302:01.9344:28.6304:33.5344:32.8314:39.3394:34.437
3888Mark GATESHILL 24:52.9Sen8Male34PDQ CYCLE COACHING19:44:002:03.6394:26.8294:32.8334:35.5334:38.6384:35.439
3954Giles BISSETT25:00.7Vet4014Male35 19:27:002:00.3314:36.0354:31.7294:40.5404:36.9364:35.138
4041Henry MORGAN25:02.1Jun3Male36YOGI19:20:302:00.7324:39.5394:38.2394:37.6374:36.4344:29.531
4144Jamie STREATHER 25:02.8Sen9Male37PDQ CYCLE COACHING19:22:002:19.0574:37.6364:37.0384:32.3304:30.7274:26.126
4223Nadia TRAMONTIN 25:03.8Vet402Female5TTG19:11:302:04.874:34.354:38.854:37.754:34.454:33.75
4353Clive SHIPWAY25:05.2Vet4015Male38 19:26:301:54.3194:38.4374:32.8324:37.0344:43.8404:38.740
4471Richard POWIS25:12.1Vet4016Male39 19:35:302:07.4484:38.9384:36.7374:39.5394:36.2334:33.235
4566Tim LOWRIE25:15.5Vet4017Male40AVON VALLEY RUNNERS19:33:002:05.8454:45.6434:43.9414:37.9384:31.8314:30.332
4662Jo BUCKLAND 25:21.3Supvet502Female6PDQ CYCLE COACHING19:31:002:03.564:44.364:40.464:39.874:39.264:33.86
4768Jacqueline WADSWORTH25:29.0Supvet503Female7SEVERN ROAD CLUB19:34:002:07.484:48.274:40.774:38.864:39.374:34.37
4850Bradley PERKINS25:35.7Jun4Male41WESTBURY WHEELERS19:25:001:58.3264:39.6404:41.9404:43.1414:47.7434:44.943
4970Adrian WILKINS25:50.4Supvet5010Male42BAD TRI19:35:002:01.2334:42.0414:48.7434:50.0434:44.0414:44.342
5042Amy BENTLEY26:08.5Sen2Female8FLYING MONK TRI CLUB19:21:002:01.854:51.394:50.184:45.984:54.594:44.79
Page 1 of 2 (93 items)
[1]2
fb

HyperLink Copyright (c) G Vincent, 2018